Time;durP1;ratioP1;P1;durP2;ratioP2;P2;SDS_P1;SDS_P2;PMS_P1;PMS_P2;Temp;Humidity;BMP_temperature;BMP_pressure;BME280_temperature;BME280_humidity;BME280_pressure;Samples;Min_cycle;Max_cycle;Signal;HPM_P1;HPM_P2
2022/05/25 00:01:04;;;;;;;13.95;12.45;;;16.00;99.90;;;;;;5100327;28;20226;-69
2022/05/25 00:03:53;;;;;;;14.40;11.40;;;16.00;99.90;;;;;;5086341;28;20296;-71
2022/05/25 00:06:42;;;;;;;16.48;12.70;;;16.00;99.90;;;;;;5102666;27;20244;-71
2022/05/25 00:09:31;;;;;;;13.07;11.73;;;16.00;99.90;;;;;;5094802;28;20229;-71
2022/05/25 00:12:21;;;;;;;14.65;12.25;;;16.00;99.90;;;;;;5096089;28;20845;-71
2022/05/25 00:15:13;;;;;;;14.07;11.23;;;16.00;99.90;;;;;;5098192;28;20230;-70
2022/05/25 00:18:02;;;;;;;13.60;11.57;;;16.10;99.90;;;;;;5099229;28;20231;-71
2022/05/25 00:20:51;;;;;;;11.70;9.98;;;16.00;99.90;;;;;;5094170;28;20224;-70
2022/05/25 00:23:39;;;;;;;12.02;9.77;;;16.00;99.90;;;;;;5087427;28;20232;-70
2022/05/25 00:26:32;;;;;;;11.48;9.18;;;16.00;99.90;;;;;;5099531;28;20223;-70
2022/05/25 00:29:20;;;;;;;11.90;10.02;;;16.00;99.90;;;;;;5100583;28;20223;-72
2022/05/25 00:32:13;;;;;;;13.10;9.80;;;16.00;99.90;;;;;;5105318;27;20245;-71
2022/05/25 00:35:03;;;;;;;12.30;9.75;;;16.10;99.90;;;;;;5096428;27;20232;-71
2022/05/25 00:37:52;;;;;;;11.80;9.13;;;16.00;99.90;;;;;;5102440;27;20221;-72
2022/05/25 00:40:43;;;;;;;12.15;9.35;;;16.10;99.90;;;;;;5088696;28;20223;-72
2022/05/25 00:43:32;;;;;;;10.07;8.23;;;16.10;99.90;;;;;;5097939;28;20223;-72
2022/05/25 00:46:22;;;;;;;9.55;8.48;;;16.20;99.90;;;;;;5087827;28;20313;-70
2022/05/25 00:49:19;;;;;;;11.00;7.95;;;16.10;99.90;;;;;;5069681;28;20227;-71
2022/05/25 00:52:11;;;;;;;9.90;8.90;;;16.00;99.90;;;;;;5090036;27;20229;-71
2022/05/25 00:55:04;;;;;;;11.02;8.40;;;16.00;99.90;;;;;;5085620;28;20230;-71
2022/05/25 00:57:53;;;;;;;10.15;7.70;;;16.00;99.90;;;;;;5086909;27;20329;-71
2022/05/25 01:00:41;;;;;;;11.73;8.70;;;16.10;99.90;;;;;;5104105;27;20218;-70
2022/05/25 01:03:30;;;;;;;12.32;8.80;;;16.00;99.90;;;;;;5095157;27;20348;-71
2022/05/25 01:06:33;;;;;;;9.77;8.65;;;16.00;99.90;;;;;;5090160;27;20239;-70
2022/05/25 01:09:34;;;;;;;11.00;8.57;;;16.10;99.90;;;;;;5094390;28;20465;-70
2022/05/25 01:12:37;;;;;;;11.25;8.18;;;16.10;99.90;;;;;;5095142;27;20274;-71
2022/05/25 01:15:33;;;;;;;9.35;8.40;;;16.10;99.90;;;;;;5080743;27;20324;-71
2022/05/25 01:18:32;;;;;;;9.80;8.18;;;16.00;99.90;;;;;;5105595;27;20300;-70
2022/05/25 01:21:28;;;;;;;10.13;8.45;;;16.00;99.90;;;;;;5087870;27;20218;-71
2022/05/25 01:24:31;;;;;;;10.75;8.35;;;15.90;99.90;;;;;;5099886;27;20223;-71
2022/05/25 01:27:36;;;;;;;8.70;7.80;;;15.90;99.90;;;;;;5098618;28;20227;-70
2022/05/25 01:30:32;;;;;;;12.25;9.10;;;15.90;99.90;;;;;;5077841;28;20227;-71
2022/05/25 01:33:27;;;;;;;10.50;9.35;;;16.00;99.90;;;;;;5103691;27;20277;-72
2022/05/25 01:36:24;;;;;;;11.52;9.60;;;16.00;99.90;;;;;;5096992;27;20286;-71
2022/05/25 01:39:18;;;;;;;10.68;9.55;;;15.90;99.90;;;;;;5079741;28;20309;-72
2022/05/25 01:42:14;;;;;;;12.27;9.88;;;15.90;99.90;;;;;;5085161;28;20623;-71
2022/05/25 01:45:07;;;;;;;9.93;8.82;;;15.90;99.90;;;;;;5077222;28;20222;-71
2022/05/25 01:48:01;;;;;;;13.02;9.95;;;16.00;99.90;;;;;;5095520;28;20219;-72
2022/05/25 01:50:54;;;;;;;9.77;8.88;;;16.00;99.90;;;;;;5085684;28;20219;-70
2022/05/25 01:53:45;;;;;;;9.25;8.30;;;16.00;99.90;;;;;;5103879;27;20267;-70
2022/05/25 01:56:38;;;;;;;10.52;9.32;;;16.00;99.90;;;;;;5104754;27;20226;-70
2022/05/25 01:59:27;;;;;;;10.60;9.60;;;16.00;99.90;;;;;;5087631;28;20222;-72
2022/05/25 02:05:24;;;;;;;10.95;9.85;;;16.00;99.90;;;;;;5098712;27;20248;-70
2022/05/25 02:08:27;;;;;;;11.48;9.93;;;16.00;99.90;;;;;;5097989;28;20238;-70
2022/05/25 02:11:26;;;;;;;10.48;9.30;;;16.00;99.90;;;;;;5092336;28;20685;-70
2022/05/25 02:14:26;;;;;;;11.38;10.25;;;15.90;99.90;;;;;;5102550;27;20254;-71
2022/05/25 02:17:27;;;;;;;11.13;9.98;;;15.90;99.90;;;;;;5100598;27;20253;-72
2022/05/25 02:20:21;;;;;;;10.82;9.82;;;15.90;99.90;;;;;;5084466;27;20222;-71
2022/05/25 02:23:18;;;;;;;12.63;10.32;;;15.90;99.90;;;;;;5091060;27;20220;-70
2022/05/25 02:26:11;;;;;;;11.80;10.55;;;15.90;99.90;;;;;;5093933;28;20239;-71
2022/05/25 02:29:06;;;;;;;14.25;12.10;;;15.90;99.90;;;;;;5084683;28;20238;-71
2022/05/25 02:31:59;;;;;;;17.17;12.93;;;15.90;99.90;;;;;;5093626;28;20227;-71
2022/05/25 02:34:50;;;;;;;17.85;16.05;;;15.80;99.90;;;;;;5101407;28;20214;-70
2022/05/25 02:37:40;;;;;;;19.20;17.25;;;15.80;99.90;;;;;;5084544;27;20206;-72
2022/05/25 02:40:31;;;;;;;21.48;19.38;;;15.90;99.90;;;;;;5084062;28;20221;-71
2022/05/25 02:43:20;;;;;;;20.20;18.08;;;16.00;99.90;;;;;;5098902;27;20738;-71
2022/05/25 02:46:10;;;;;;;21.77;18.52;;;16.00;99.90;;;;;;5103494;27;20305;-70
2022/05/25 02:48:59;;;;;;;20.40;16.33;;;16.00;99.90;;;;;;5096184;27;20227;-73
2022/05/25 02:51:48;;;;;;;17.20;15.40;;;16.00;99.90;;;;;;5086745;28;20375;-72
2022/05/25 02:54:38;;;;;;;18.05;14.43;;;16.00;99.90;;;;;;5081504;28;20241;-72
2022/05/25 02:57:29;;;;;;;16.05;14.45;;;15.90;99.90;;;;;;5094994;27;20335;-70
2022/05/25 03:00:18;;;;;;;15.07;13.57;;;16.00;99.90;;;;;;5105732;27;20229;-71
2022/05/25 03:03:07;;;;;;;18.40;14.85;;;15.90;99.90;;;;;;5094017;27;20227;-71
2022/05/25 03:05:56;;;;;;;16.08;14.38;;;16.00;99.90;;;;;;5092739;27;20223;-71
2022/05/25 03:08:46;;;;;;;15.25;13.32;;;16.00;99.90;;;;;;5083217;28;20689;-71
2022/05/25 03:11:34;;;;;;;16.35;12.80;;;16.00;99.90;;;;;;5081957;28;20229;-70
2022/05/25 03:14:25;;;;;;;15.77;13.13;;;16.00;99.90;;;;;;5088336;28;20234;-72
2022/05/25 03:17:14;;;;;;;17.25;13.40;;;16.00;99.90;;;;;;5093286;28;20230;-73
2022/05/25 03:20:03;;;;;;;13.60;12.20;;;16.00;99.90;;;;;;5093031;28;20763;-72
2022/05/25 03:22:52;;;;;;;15.18;12.45;;;16.10;99.90;;;;;;5100771;27;20236;-73
2022/05/25 03:25:40;;;;;;;14.15;12.52;;;16.10;99.90;;;;;;5080235;28;20942;-71
2022/05/25 03:28:33;;;;;;;15.57;13.23;;;16.00;99.90;;;;;;5097843;28;20218;-71
2022/05/25 03:31:26;;;;;;;18.13;13.13;;;16.10;99.90;;;;;;5093835;28;20229;-72
2022/05/25 03:34:15;;;;;;;16.02;12.65;;;16.10;99.90;;;;;;5092303;27;20229;-70
2022/05/25 03:37:04;;;;;;;14.70;13.07;;;16.10;99.90;;;;;;5099154;28;20685;-69
2022/05/25 03:39:53;;;;;;;14.05;12.48;;;16.10;99.90;;;;;;5093294;28;20230;-71
2022/05/25 03:42:43;;;;;;;14.35;12.23;;;16.20;99.90;;;;;;5102076;28;20222;-72
2022/05/25 03:45:32;;;;;;;15.07;13.20;;;16.20;99.90;;;;;;5083117;28;20215;-72
2022/05/25 03:48:22;;;;;;;15.05;12.73;;;16.30;99.90;;;;;;5081844;28;20608;-71
2022/05/25 03:51:11;;;;;;;19.38;13.10;;;16.30;99.90;;;;;;5087816;28;20222;-70
2022/05/25 03:53:59;;;;;;;14.45;12.75;;;16.30;99.90;;;;;;5084436;28;20310;-70
2022/05/25 03:56:48;;;;;;;17.00;13.23;;;16.30;99.90;;;;;;5093147;28;20286;-69
2022/05/25 03:59:37;;;;;;;15.48;13.48;;;16.30;99.90;;;;;;5092871;28;20731;-69
2022/05/25 04:02:25;;;;;;;17.65;13.18;;;16.30;99.90;;;;;;5087389;28;20226;-71
2022/05/25 04:05:15;;;;;;;18.40;13.48;;;16.30;99.90;;;;;;5088019;28;20307;-69
2022/05/25 04:08:04;;;;;;;14.65;13.15;;;16.30;99.90;;;;;;5099806;28;20223;-70
2022/05/25 04:10:53;;;;;;;16.52;13.77;;;16.40;99.90;;;;;;5097901;28;20690;-71
2022/05/25 04:13:42;;;;;;;17.17;14.52;;;16.40;99.90;;;;;;5096557;28;20234;-70
2022/05/25 04:16:31;;;;;;;15.55;14.02;;;16.40;99.90;;;;;;5098674;28;20542;-72
2022/05/25 04:19:24;;;;;;;18.63;14.10;;;16.50;99.90;;;;;;5099994;28;20238;-70
2022/05/25 04:22:14;;;;;;;16.70;14.23;;;16.50;99.90;;;;;;5101829;28;20239;-70
2022/05/25 04:25:04;;;;;;;16.70;14.13;;;16.60;99.90;;;;;;5083579;28;20224;-70
2022/05/25 04:27:54;;;;;;;16.02;14.38;;;16.60;99.90;;;;;;5103841;28;20321;-70
2022/05/25 04:30:43;;;;;;;15.60;14.00;;;16.70;99.90;;;;;;5097143;28;20282;-71
2022/05/25 04:33:33;;;;;;;17.58;14.52;;;16.70;99.90;;;;;;5082697;28;20227;-72
2022/05/25 04:36:22;;;;;;;16.25;14.40;;;16.70;99.90;;;;;;5096235;28;20224;-70
2022/05/25 04:39:12;;;;;;;16.90;14.52;;;16.70;99.90;;;;;;5084264;27;20218;-71
2022/05/25 04:42:01;;;;;;;18.83;14.35;;;16.70;99.90;;;;;;5096934;27;20306;-72
2022/05/25 04:44:49;;;;;;;18.85;14.65;;;16.70;99.90;;;;;;5098004;28;20219;-71
2022/05/25 04:47:40;;;;;;;19.63;15.55;;;16.70;99.90;;;;;;5098577;28;20222;-72
2022/05/25 04:50:36;;;;;;;22.38;17.05;;;16.70;99.90;;;;;;5090978;27;20230;-72
2022/05/25 04:53:25;;;;;;;17.13;15.15;;;16.70;99.90;;;;;;5099395;27;20332;-72
2022/05/25 04:59:21;;;;;;;19.52;15.80;;;16.80;99.90;;;;;;5091974;27;20226;-72
2022/05/25 05:02:10;;;;;;;17.17;15.38;;;17.00;99.90;;;;;;5085801;27;20222;-72
2022/05/25 05:04:59;;;;;;;19.73;15.70;;;17.20;99.90;;;;;;5098039;27;20278;-71
2022/05/25 05:07:48;;;;;;;21.08;16.10;;;17.30;99.90;;;;;;5086670;27;20222;-72
2022/05/25 05:10:37;;;;;;;19.30;16.35;;;17.40;99.90;;;;;;5108678;27;20230;-72
2022/05/25 05:13:27;;;;;;;19.15;15.82;;;17.50;99.90;;;;;;5089663;27;20222;-70
2022/05/25 05:16:18;;;;;;;18.95;16.38;;;17.40;99.90;;;;;;5105453;27;20215;-72
2022/05/25 05:19:15;;;;;;;20.42;16.42;;;17.50;99.90;;;;;;5100788;27;20281;-70
2022/05/25 05:22:34;;;;;;;19.77;16.70;;;17.50;99.90;;;;;;5094225;27;20215;-73
2022/05/25 05:25:26;;;;;;;23.83;18.10;;;17.50;99.90;;;;;;5102406;27;20211;-72
2022/05/25 05:28:19;;;;;;;20.05;17.85;;;17.50;99.90;;;;;;5092027;28;20231;-72
2022/05/25 05:31:10;;;;;;;23.38;18.30;;;17.50;99.90;;;;;;5094215;27;20231;-73
2022/05/25 05:33:59;;;;;;;21.58;18.83;;;17.60;99.90;;;;;;5105738;27;20233;-70
2022/05/25 05:36:50;;;;;;;23.25;19.17;;;17.60;99.90;;;;;;5101397;27;20314;-71
2022/05/25 05:39:42;;;;;;;20.75;18.45;;;17.60;99.90;;;;;;5089138;27;20263;-71
2022/05/25 05:42:31;;;;;;;22.27;19.88;;;17.60;99.90;;;;;;5098872;27;20383;-70
2022/05/25 05:45:23;;;;;;;20.88;18.73;;;17.60;99.90;;;;;;5102498;27;20215;-70
2022/05/25 05:48:18;;;;;;;22.58;18.92;;;17.50;99.90;;;;;;5099138;27;20217;-71
2022/05/25 05:51:11;;;;;;;23.92;19.40;;;17.60;99.90;;;;;;5093162;27;20223;-71
2022/05/25 05:54:01;;;;;;;22.65;20.33;;;17.60;99.90;;;;;;5089401;27;20310;-71
2022/05/25 05:56:50;;;;;;;26.48;22.17;;;17.90;99.90;;;;;;5086387;28;20383;-72
2022/05/25 05:59:39;;;;;;;23.00;20.48;;;17.90;99.90;;;;;;5101906;27;20250;-72
2022/05/25 06:02:28;;;;;;;30.13;23.40;;;17.90;99.90;;;;;;5085544;27;20222;-70
2022/05/25 06:05:18;;;;;;;27.08;23.02;;;17.90;99.90;;;;;;5104300;27;20230;-71
2022/05/25 06:08:12;;;;;;;28.65;24.45;;;18.00;99.90;;;;;;5101787;27;20223;-74
2022/05/25 06:11:01;;;;;;;33.13;24.83;;;18.10;99.90;;;;;;5106834;27;20252;-72
2022/05/25 06:13:50;;;;;;;38.63;24.77;;;18.20;99.90;;;;;;5086745;27;20999;-72
2022/05/25 06:19:45;;;;;;;35.15;26.50;;;18.20;99.90;;;;;;5100858;27;20230;-74
2022/05/25 06:22:39;;;;;;;39.20;28.63;;;18.30;99.90;;;;;;5102591;27;20218;-72
2022/05/25 06:25:28;;;;;;;41.58;27.63;;;18.40;99.90;;;;;;5098491;27;20222;-75
2022/05/25 06:28:17;;;;;;;40.88;29.55;;;18.50;99.90;;;;;;5090040;28;20227;-69
2022/05/25 06:31:06;;;;;;;44.00;28.55;;;18.50;99.90;;;;;;5095558;27;20756;-71
2022/05/25 06:33:55;;;;;;;39.90;28.02;;;18.50;99.90;;;;;;5079455;28;20294;-73
2022/05/25 06:36:44;;;;;;;44.30;27.88;;;18.60;99.90;;;;;;5088936;27;20215;-73
2022/05/25 06:39:37;;;;;;;45.33;29.83;;;18.60;99.90;;;;;;5086472;27;20211;-69
2022/05/25 06:42:26;;;;;;;46.70;28.95;;;18.70;99.90;;;;;;5092864;28;20682;-71
2022/05/25 06:45:15;;;;;;;50.58;28.98;;;18.40;99.90;;;;;;5093781;27;20227;-69
2022/05/25 06:48:04;;;;;;;53.10;29.27;;;18.20;99.90;;;;;;5093045;27;20727;-69
2022/05/25 06:50:53;;;;;;;48.83;28.92;;;17.90;99.90;;;;;;5093708;27;20749;-69
2022/05/25 06:53:41;;;;;;;51.13;31.25;;;18.00;99.90;;;;;;5099397;27;20717;-71
2022/05/25 06:56:32;;;;;;;50.80;30.45;;;18.10;99.90;;;;;;5093799;27;20277;-69
2022/05/25 06:59:21;;;;;;;49.35;30.50;;;18.40;99.90;;;;;;5083414;27;20215;-70
2022/05/25 07:02:09;;;;;;;45.72;28.27;;;18.80;99.90;;;;;;5089344;28;20410;-70
2022/05/25 07:04:58;;;;;;;42.00;27.60;;;19.00;99.90;;;;;;5081099;27;20222;-70
2022/05/25 07:07:48;;;;;;;46.05;29.27;;;19.10;99.90;;;;;;5074457;28;20261;-70
2022/05/25 07:10:36;;;;;;;46.45;28.88;;;19.10;99.90;;;;;;5093564;28;20758;-70
2022/05/25 07:13:27;;;;;;;42.47;29.40;;;18.90;99.90;;;;;;5096359;27;20351;-69
2022/05/25 07:16:18;;;;;;;42.05;29.10;;;18.80;99.90;;;;;;5091908;27;20274;-70
2022/05/25 07:19:07;;;;;;;41.28;27.50;;;18.80;99.90;;;;;;5089020;28;21111;-69
2022/05/25 07:21:56;;;;;;;45.75;27.95;;;19.00;99.90;;;;;;5079849;28;20225;-70
2022/05/25 07:24:46;;;;;;;42.22;28.95;;;19.00;99.90;;;;;;5093132;27;20755;-69
2022/05/25 07:27:34;;;;;;;45.20;30.98;;;19.00;99.90;;;;;;5100037;28;20214;-70
2022/05/25 07:30:24;;;;;;;45.13;30.63;;;19.00;99.90;;;;;;5098790;27;20272;-70
2022/05/25 07:33:13;;;;;;;45.78;31.33;;;19.10;99.90;;;;;;5099681;27;20268;-69
2022/05/25 07:36:02;;;;;;;51.67;31.20;;;19.00;99.90;;;;;;5090134;28;20237;-70
2022/05/25 07:38:54;;;;;;;44.90;29.77;;;19.00;99.90;;;;;;5099028;28;20308;-69
2022/05/25 07:41:47;;;;;;;44.80;29.45;;;19.00;99.90;;;;;;5079682;28;20233;-71
2022/05/25 07:44:43;;;;;;;43.10;29.58;;;19.00;99.90;;;;;;5103268;28;20214;-69
2022/05/25 07:47:34;;;;;;;42.58;28.02;;;19.10;99.90;;;;;;5077832;28;20211;-70
2022/05/25 07:50:23;;;;;;;41.42;28.52;;;19.20;99.90;;;;;;5082437;28;20230;-70
2022/05/25 07:56:29;;;;;;;42.53;28.40;;;19.50;99.90;;;;;;5075431;28;20207;-70
2022/05/25 07:59:19;;;;;;;39.47;27.15;;;19.80;99.90;;;;;;5095920;28;20222;-70
2022/05/25 08:08:32;;;;;;;37.35;28.25;;;20.00;99.90;;;;;;5077997;28;20226;-68
2022/05/25 08:11:22;;;;;;;35.80;29.17;;;20.20;99.90;;;;;;5090916;28;20432;-69
2022/05/25 08:14:11;;;;;;;37.83;27.65;;;20.50;99.90;;;;;;5065227;28;20223;-70
2022/05/25 08:17:00;;;;;;;35.40;27.95;;;20.50;99.90;;;;;;5090662;27;20373;-68
2022/05/25 08:19:49;;;;;;;33.83;28.27;;;20.10;99.90;;;;;;5094338;27;20344;-69
2022/05/25 08:22:40;;;;;;;36.35;28.73;;;19.90;99.90;;;;;;5096179;27;20233;-69
2022/05/25 08:25:29;;;;;;;36.50;30.38;;;19.80;99.90;;;;;;5094252;27;20214;-69
2022/05/25 08:28:18;;;;;;;39.42;30.70;;;19.70;99.90;;;;;;5091610;27;20218;-69
2022/05/25 08:31:10;;;;;;;40.75;30.85;;;19.60;99.90;;;;;;5090555;27;20267;-70
2022/05/25 08:33:59;;;;;;;37.25;30.65;;;19.60;99.90;;;;;;5074923;28;20600;-70
2022/05/25 08:36:47;;;;;;;39.20;30.65;;;19.60;99.90;;;;;;5080526;27;20309;-69
2022/05/25 08:39:38;;;;;;;38.17;30.98;;;19.60;99.90;;;;;;5073744;28;20218;-71
2022/05/25 08:42:34;;;;;;;37.05;30.05;;;19.60;99.90;;;;;;5091758;27;20398;-70
2022/05/25 08:45:28;;;;;;;38.60;30.00;;;19.70;99.90;;;;;;5092317;27;20307;-70
2022/05/25 08:48:20;;;;;;;37.47;29.58;;;19.70;99.90;;;;;;5093720;27;20219;-69
2022/05/25 08:51:11;;;;;;;34.60;29.75;;;19.70;99.90;;;;;;5076852;27;20884;-69
2022/05/25 08:54:01;;;;;;;36.85;30.25;;;19.60;99.90;;;;;;5077762;28;20223;-70
2022/05/25 08:56:57;;;;;;;36.47;29.92;;;19.50;99.90;;;;;;5085400;27;20395;-69
2022/05/25 08:59:50;;;;;;;36.92;31.27;;;19.30;99.90;;;;;;5092604;27;21022;-69
2022/05/25 09:02:51;;;;;;;37.33;30.95;;;19.40;99.90;;;;;;5076772;27;20310;-69
2022/05/25 09:05:42;;;;;;;34.13;30.17;;;19.30;99.90;;;;;;5096117;27;20207;-69
2022/05/25 09:08:47;;;;;;;34.30;29.67;;;19.10;99.90;;;;;;5089744;27;20652;-69
2022/05/25 09:11:42;;;;;;;35.50;28.33;;;19.10;99.90;;;;;;5093306;27;20213;-70
2022/05/25 09:14:37;;;;;;;35.45;29.95;;;19.10;99.90;;;;;;5072797;27;20228;-69
2022/05/25 09:17:29;;;;;;;39.47;30.27;;;19.00;99.90;;;;;;5095170;27;20250;-69
2022/05/25 09:20:22;;;;;;;40.25;31.15;;;18.80;99.90;;;;;;5096434;27;20222;-71
2022/05/25 09:23:18;;;;;;;48.55;35.70;;;18.70;99.90;;;;;;5097556;27;20218;-69
2022/05/25 09:26:06;;;;;;;53.42;36.28;;;18.70;99.90;;;;;;5097958;27;20231;-69
2022/05/25 09:29:00;;;;;;;60.30;41.85;;;18.60;99.90;;;;;;5087137;27;20272;-71
2022/05/25 09:31:54;;;;;;;62.08;41.53;;;18.50;99.90;;;;;;5098848;27;20226;-69
2022/05/25 09:34:53;;;;;;;60.45;41.47;;;18.60;99.90;;;;;;5097887;27;20234;-69
2022/05/25 09:37:47;;;;;;;68.95;44.83;;;18.70;99.90;;;;;;5092667;27;20235;-69
2022/05/25 09:40:41;;;;;;;70.63;46.40;;;18.50;99.90;;;;;;5083329;27;20662;-69
2022/05/25 09:43:31;;;;;;;80.75;49.78;;;18.40;99.90;;;;;;5098410;27;20226;-69
2022/05/25 09:46:25;;;;;;;84.35;51.38;;;18.40;99.90;;;;;;5087741;27;20314;-71
2022/05/25 09:49:30;;;;;;;88.00;52.35;;;18.30;99.90;;;;;;5101612;27;20288;-70
2022/05/25 09:52:24;;;;;;;83.00;50.83;;;18.20;99.90;;;;;;5090631;27;20270;-69
2022/05/25 09:55:16;;;;;;;79.25;49.03;;;17.90;99.90;;;;;;5088433;27;20248;-68
2022/05/25 09:58:09;;;;;;;82.72;50.70;;;17.90;99.90;;;;;;5102401;27;20223;-69
2022/05/25 10:01:02;;;;;;;72.63;48.20;;;18.00;99.90;;;;;;5088065;27;20219;-70
2022/05/25 10:03:55;;;;;;;76.90;48.65;;;17.90;99.90;;;;;;5084575;27;20265;-70
2022/05/25 10:06:50;;;;;;;78.38;48.83;;;18.00;99.90;;;;;;5091682;27;20222;-69
2022/05/25 10:09:46;;;;;;;64.40;46.10;;;18.00;99.90;;;;;;5079416;28;20268;-70
2022/05/25 13:29:31;;;;;;;7.00;5.20;;;15.90;99.90;;;;;;4963810;28;20601;-69
2022/05/25 13:32:38;;;;;;;7.70;5.38;;;15.80;99.90;;;;;;4962698;28;20687;-68
2022/05/25 13:35:41;;;;;;;9.07;5.00;;;15.80;99.90;;;;;;4966709;28;20299;-68
2022/05/25 13:38:38;;;;;;;7.25;4.57;;;15.90;99.90;;;;;;4962888;28;20223;-69
2022/05/25 13:41:30;;;;;;;5.07;4.50;;;15.70;99.90;;;;;;4936941;28;21030;-69
2022/05/25 13:44:25;;;;;;;8.27;4.70;;;15.80;99.90;;;;;;4947700;28;20231;-69
2022/05/25 13:47:20;;;;;;;7.82;4.05;;;15.70;99.90;;;;;;4965592;28;20227;-68
2022/05/25 13:50:09;;;;;;;5.15;3.47;;;15.50;99.90;;;;;;4954832;28;20236;-67
2022/05/25 13:52:58;;;;;;;5.78;3.85;;;15.40;99.90;;;;;;4955047;28;20230;-69
2022/05/25 13:55:47;;;;;;;6.38;3.60;;;15.20;99.90;;;;;;4965128;28;20320;-68
2022/05/25 13:58:42;;;;;;;6.20;3.75;;;15.30;99.90;;;;;;4958049;28;20274;-69
2022/05/25 14:01:32;;;;;;;7.57;4.65;;;15.10;99.90;;;;;;4968580;28;20234;-70
2022/05/25 14:04:26;;;;;;;7.07;4.40;;;14.90;99.90;;;;;;4952037;28;20886;-69
2022/05/25 14:07:32;;;;;;;7.07;4.55;;;15.20;99.90;;;;;;4954135;28;20235;-67
2022/05/25 14:13:34;;;;;;;6.40;4.63;;;15.40;99.90;;;;;;4951246;28;20219;-68
2022/05/25 14:16:24;;;;;;;9.15;5.75;;;15.60;99.90;;;;;;4950425;28;20311;-69
2022/05/25 14:19:21;;;;;;;5.93;4.50;;;15.70;99.90;;;;;;4954959;28;20755;-68
2022/05/25 14:22:10;;;;;;;9.93;5.70;;;15.60;99.90;;;;;;4954932;28;20646;-70
2022/05/25 14:25:11;;;;;;;5.53;4.43;;;15.80;99.90;;;;;;4963758;28;20304;-68
2022/05/25 14:28:00;;;;;;;6.00;4.00;;;15.70;99.90;;;;;;4953644;28;20833;-71
2022/05/25 14:30:54;;;;;;;7.07;4.40;;;15.30;99.90;;;;;;4956931;28;20444;-70
2022/05/25 14:33:43;;;;;;;6.95;3.90;;;15.50;99.90;;;;;;4955134;28;20602;-69
2022/05/25 14:36:34;;;;;;;8.63;4.20;;;15.70;99.90;;;;;;4954883;28;20212;-70
2022/05/25 14:39:26;;;;;;;7.40;4.20;;;15.80;99.90;;;;;;4949200;28;20239;-71
2022/05/25 14:42:18;;;;;;;6.22;4.55;;;15.60;99.90;;;;;;4941315;28;20220;-69
2022/05/25 14:45:16;;;;;;;4.55;4.07;;;15.60;99.90;;;;;;4945819;28;20232;-72
2022/05/25 14:48:12;;;;;;;5.07;4.43;;;15.70;99.90;;;;;;4949529;28;20233;-70
2022/05/25 14:51:01;;;;;;;6.32;5.03;;;15.60;99.90;;;;;;4948154;28;20243;-70
2022/05/25 14:53:53;;;;;;;6.47;5.20;;;15.40;99.90;;;;;;4943572;28;20518;-69
2022/05/25 14:56:42;;;;;;;8.85;5.90;;;15.50;99.90;;;;;;4947903;28;20282;-68
2022/05/25 14:59:34;;;;;;;7.40;5.50;;;15.50;99.90;;;;;;4941627;28;20330;-69
2022/05/25 15:02:26;;;;;;;7.10;5.15;;;15.40;99.90;;;;;;4941385;28;20228;-68
2022/05/25 15:05:27;;;;;;;6.95;4.80;;;15.30;99.90;;;;;;4943862;28;20220;-69
2022/05/25 15:08:27;;;;;;;6.38;5.68;;;15.40;99.90;;;;;;4942678;28;20460;-71
2022/05/25 15:11:36;;;;;;;6.22;5.30;;;15.50;99.90;;;;;;4944177;28;20278;-70
2022/05/25 15:20:52;;;;;;;8.68;5.72;;;15.40;99.90;;;;;;4953026;28;20248;-69
2022/05/25 15:23:44;;;;;;;10.30;7.05;;;15.40;99.90;;;;;;4942350;28;20229;-69
2022/05/25 15:26:37;;;;;;;9.13;6.13;;;15.40;99.90;;;;;;4943310;28;20268;-69
2022/05/25 15:29:32;;;;;;;10.35;7.25;;;15.40;99.90;;;;;;4936829;28;20224;-70
2022/05/25 15:32:22;;;;;;;10.88;6.80;;;15.30;99.90;;;;;;4949518;28;20307;-70
2022/05/25 15:35:11;;;;;;;8.88;6.50;;;15.40;99.90;;;;;;4940963;28;20753;-70
2022/05/25 15:38:05;;;;;;;11.07;7.65;;;15.40;99.90;;;;;;4945183;28;20235;-69
2022/05/25 15:40:54;;;;;;;11.75;8.00;;;15.40;99.90;;;;;;4938926;28;21286;-70
2022/05/25 15:43:45;;;;;;;11.85;7.85;;;15.50;99.90;;;;;;4953718;28;20672;-69
2022/05/25 15:46:37;;;;;;;9.52;7.85;;;15.30;99.90;;;;;;4938546;28;20228;-70
2022/05/25 15:49:26;;;;;;;9.93;7.57;;;15.30;99.90;;;;;;4955126;28;20255;-69
2022/05/25 15:52:16;;;;;;;9.07;8.15;;;15.40;99.90;;;;;;4941923;28;20227;-70
2022/05/25 15:55:06;;;;;;;13.25;8.45;;;15.40;99.90;;;;;;4956467;28;20293;-70
2022/05/25 15:57:54;;;;;;;9.13;8.05;;;15.40;99.90;;;;;;4954150;28;20270;-70
2022/05/25 16:00:48;;;;;;;9.88;7.68;;;15.40;99.90;;;;;;4954428;28;20235;-69
2022/05/25 16:03:42;;;;;;;10.73;7.65;;;15.40;99.90;;;;;;4958098;28;20225;-70
2022/05/25 16:06:32;;;;;;;6.88;6.13;;;15.50;99.90;;;;;;4952176;28;20292;-69
2022/05/25 16:09:21;;;;;;;7.63;6.60;;;15.40;99.90;;;;;;4955023;28;20228;-69
2022/05/25 16:12:14;;;;;;;9.18;6.50;;;15.40;99.90;;;;;;4941841;28;20232;-69
2022/05/25 16:15:03;;;;;;;8.70;6.10;;;15.40;99.90;;;;;;4943322;28;20342;-69
2022/05/25 16:17:54;;;;;;;7.53;6.40;;;15.20;99.90;;;;;;4940526;28;20235;-70
2022/05/25 16:20:43;;;;;;;5.93;5.25;;;15.20;99.90;;;;;;4942371;28;20236;-70
2022/05/25 16:23:33;;;;;;;10.35;5.20;;;15.20;99.90;;;;;;4944416;28;20220;-68
2022/05/25 16:26:22;;;;;;;5.40;4.90;;;15.30;99.90;;;;;;4942477;28;20255;-68
2022/05/25 16:29:11;;;;;;;6.50;3.67;;;15.30;99.90;;;;;;4937232;28;20231;-69
2022/05/25 16:32:00;;;;;;;5.63;3.83;;;15.00;99.90;;;;;;4942628;28;20305;-69
2022/05/25 16:34:51;;;;;;;4.75;3.50;;;15.00;99.90;;;;;;4946555;28;20266;-69
2022/05/25 16:37:40;;;;;;;6.43;3.90;;;14.80;99.90;;;;;;4940792;28;20242;-70
2022/05/25 16:40:29;;;;;;;4.93;3.80;;;14.90;99.90;;;;;;4938254;28;20753;-72
2022/05/25 16:43:18;;;;;;;3.92;3.50;;;14.90;99.90;;;;;;4937764;28;20298;-69
2022/05/25 16:46:11;;;;;;;3.38;3.03;;;14.70;99.90;;;;;;4945788;28;20223;-69
2022/05/25 16:49:00;;;;;;;5.53;3.67;;;14.70;99.90;;;;;;4940235;28;20228;-69
2022/05/25 16:51:50;;;;;;;7.40;3.67;;;14.50;99.90;;;;;;4940535;28;20647;-70
2022/05/25 16:54:39;;;;;;;7.50;3.40;;;14.60;99.90;;;;;;4942330;28;20224;-70
2022/05/25 16:57:30;;;;;;;5.05;3.42;;;14.30;99.90;;;;;;4952180;28;20227;-67
2022/05/25 17:00:22;;;;;;;4.75;4.05;;;14.30;99.90;;;;;;4954515;28;20362;-68
2022/05/25 17:03:10;;;;;;;5.75;4.13;;;14.40;99.90;;;;;;4939815;28;20602;-69
2022/05/25 17:06:00;;;;;;;5.55;4.07;;;14.50;99.90;;;;;;4941238;28;20316;-68
2022/05/25 17:08:50;;;;;;;4.65;3.85;;;14.50;99.90;;;;;;4942158;28;20604;-68
2022/05/25 17:11:39;;;;;;;5.75;4.18;;;14.70;99.90;;;;;;4953236;28;20316;-70
2022/05/25 17:14:28;;;;;;;4.63;4.10;;;14.80;99.90;;;;;;4947246;28;20784;-69
2022/05/25 17:17:17;;;;;;;7.40;4.70;;;14.70;99.90;;;;;;4942466;28;20279;-70
2022/05/25 17:23:19;;;;;;;5.95;4.13;;;14.70;99.90;;;;;;4948703;28;20285;-70
2022/05/25 17:26:17;;;;;;;6.57;4.63;;;14.70;99.90;;;;;;4941750;28;20247;-70
2022/05/25 17:29:06;;;;;;;6.55;4.10;;;14.70;99.90;;;;;;4941489;28;20232;-69
2022/05/25 17:31:55;;;;;;;5.38;3.90;;;14.70;99.90;;;;;;4939173;28;20236;-69
2022/05/25 17:34:44;;;;;;;7.00;4.38;;;14.70;99.90;;;;;;4943940;28;20220;-69
2022/05/25 17:43:47;;;;;;;5.22;4.65;;;14.60;99.90;;;;;;4951246;28;20468;-69
2022/05/25 17:46:37;;;;;;;10.07;4.90;;;14.70;99.90;;;;;;4932526;28;20251;-70
2022/05/25 17:49:28;;;;;;;7.22;4.90;;;14.70;99.90;;;;;;4941484;28;20297;-68
2022/05/25 17:52:18;;;;;;;9.20;4.97;;;14.60;99.90;;;;;;4952424;28;20229;-69
2022/05/25 17:55:08;;;;;;;8.75;4.82;;;14.60;99.90;;;;;;4949125;28;20228;-69
2022/05/25 17:57:57;;;;;;;7.35;5.10;;;14.50;99.90;;;;;;4934379;28;20307;-70
2022/05/25 18:00:47;;;;;;;7.32;5.40;;;14.60;99.90;;;;;;4946472;28;20247;-70
2022/05/25 18:03:36;;;;;;;7.13;4.95;;;14.50;99.90;;;;;;4959862;28;20216;-70
2022/05/25 18:06:26;;;;;;;6.20;4.55;;;14.50;99.90;;;;;;4954426;28;20346;-70
2022/05/25 18:09:15;;;;;;;6.40;4.60;;;14.50;99.90;;;;;;4943558;28;20224;-70
2022/05/25 18:12:07;;;;;;;9.45;5.10;;;14.40;99.90;;;;;;4945258;28;20250;-66
2022/05/25 18:15:00;;;;;;;5.97;4.82;;;14.50;99.90;;;;;;4940379;28;20723;-69
2022/05/25 18:17:54;;;;;;;5.07;4.57;;;14.30;99.90;;;;;;4949960;28;20762;-68
2022/05/25 18:20:43;;;;;;;8.55;5.18;;;14.30;99.90;;;;;;4944252;28;20254;-68
2022/05/25 18:23:32;;;;;;;8.68;5.45;;;14.30;99.90;;;;;;4944032;28;20216;-67
2022/05/25 18:26:21;;;;;;;8.18;5.15;;;14.30;99.90;;;;;;4942417;28;20350;-69
2022/05/25 18:29:10;;;;;;;12.32;5.63;;;14.30;99.90;;;;;;4954530;28;20809;-68
2022/05/25 18:31:59;;;;;;;6.95;4.93;;;14.20;99.90;;;;;;4945222;28;20250;-68
2022/05/25 18:34:49;;;;;;;7.18;4.57;;;14.20;99.90;;;;;;4953477;28;20228;-68